Terminal Aerodrome Forecast
Issued by NWS

Home | Current Version | Previous Version | Text Only | Print | Product List | Glossary On
Versions: 1 2 3 4 5 6 7 8 9 10 11 12 13 14 15 16 17 18 19 20 21 22 23 24 25 26 27
764
FTUS43 KLSX 262339
TAFUIN
TAF
KUIN 262339Z 2700/2724 25007KT P6SM BKN015
     FM270500 VRB04KT P6SM BKN020
     FM271200 06007KT 3SM SHRA OVC008
     FM272000 01009KT P6SM OVC008=

USA.gov is the U.S. government's official web portal to all federal, state and local government web resources and services.